sensor_id;sensor_type;location;lat;lon;timestamp;pressure;altitude;pressure_sealevel;temperature;humidity
41513;BME280;27244;59.940;30.280;2023-07-13T00:01:36;100557.28;;;24.15;44.74
41513;BME280;27244;59.940;30.280;2023-07-13T00:04:04;100549.72;;;24.12;44.80
41513;BME280;27244;59.940;30.280;2023-07-13T00:06:31;100552.88;;;24.14;44.74
41513;BME280;27244;59.940;30.280;2023-07-13T00:08:58;100546.00;;;24.15;44.62
41513;BME280;27244;59.940;30.280;2023-07-13T00:11:25;100544.44;;;24.14;44.92
41513;BME280;27244;59.940;30.280;2023-07-13T00:13:52;100536.53;;;24.09;44.84
41513;BME280;27244;59.940;30.280;2023-07-13T00:16:19;100541.25;;;24.12;44.90
41513;BME280;27244;59.940;30.280;2023-07-13T00:18:48;100541.25;;;24.12;44.75
41513;BME280;27244;59.940;30.280;2023-07-13T00:21:15;100533.72;;;24.09;44.98
41513;BME280;27244;59.940;30.280;2023-07-13T00:23:42;100534.69;;;24.02;44.69
41513;BME280;27244;59.940;30.280;2023-07-13T00:26:11;100531.78;;;24.06;44.67
41513;BME280;27244;59.940;30.280;2023-07-13T00:28:39;100535.06;;;24.04;44.77
41513;BME280;27244;59.940;30.280;2023-07-13T00:31:08;100528.63;;;24.03;44.77
41513;BME280;27244;59.940;30.280;2023-07-13T00:33:35;100528.63;;;24.03;44.71
41513;BME280;27244;59.940;30.280;2023-07-13T00:36:04;100520.63;;;24.02;44.67
41513;BME280;27244;59.940;30.280;2023-07-13T00:38:31;100515.78;;;24.02;44.55
41513;BME280;27244;59.940;30.280;2023-07-13T00:40:58;100513.19;;;23.95;44.66
41513;BME280;27244;59.940;30.280;2023-07-13T00:43:27;100511.03;;;23.99;44.64
41513;BME280;27244;59.940;30.280;2023-07-13T00:46:23;100508.94;;;24.16;44.39
41513;BME280;27244;59.940;30.280;2023-07-13T00:48:51;100503.38;;;24.00;44.41
41513;BME280;27244;59.940;30.280;2023-07-13T00:51:25;100512.03;;;24.06;44.60
41513;BME280;27244;59.940;30.280;2023-07-13T00:53:56;100507.31;;;24.02;44.47
41513;BME280;27244;59.940;30.280;2023-07-13T00:56:26;100507.44;;;23.99;44.56
41513;BME280;27244;59.940;30.280;2023-07-13T00:58:55;100501.38;;;24.00;44.47
41513;BME280;27244;59.940;30.280;2023-07-13T01:01:22;100499.47;;;23.97;44.57
41513;BME280;27244;59.940;30.280;2023-07-13T01:03:49;100494.13;;;23.99;44.63
41513;BME280;27244;59.940;30.280;2023-07-13T01:06:17;100484.22;;;23.95;44.63
41513;BME280;27244;59.940;30.280;2023-07-13T01:08:46;100492.56;;;23.98;44.58
41513;BME280;27244;59.940;30.280;2023-07-13T01:11:18;100483.53;;;24.03;44.57
41513;BME280;27244;59.940;30.280;2023-07-13T01:13:45;100469.25;;;23.98;44.43
41513;BME280;27244;59.940;30.280;2023-07-13T01:16:18;100476.00;;;24.00;44.41
41513;BME280;27244;59.940;30.280;2023-07-13T01:18:47;100471.72;;;23.96;44.32
41513;BME280;27244;59.940;30.280;2023-07-13T01:21:16;100478.47;;;23.98;44.73
41513;BME280;27244;59.940;30.280;2023-07-13T01:23:44;100487.84;;;23.95;44.55
41513;BME280;27244;59.940;30.280;2023-07-13T01:26:11;100499.09;;;23.95;44.43
41513;BME280;27244;59.940;30.280;2023-07-13T01:28:38;100500.38;;;23.94;44.38
41513;BME280;27244;59.940;30.280;2023-07-13T01:31:07;100489.84;;;23.95;44.27
41513;BME280;27244;59.940;30.280;2023-07-13T01:33:36;100493.47;;;23.95;44.21
41513;BME280;27244;59.940;30.280;2023-07-13T01:36:04;100489.09;;;23.94;44.16
41513;BME280;27244;59.940;30.280;2023-07-13T01:38:33;100482.19;;;23.95;44.16
41513;BME280;27244;59.940;30.280;2023-07-13T01:41:00;100478.25;;;23.93;44.26
41513;BME280;27244;59.940;30.280;2023-07-13T01:43:28;100474.66;;;23.92;44.37
41513;BME280;27244;59.940;30.280;2023-07-13T01:45:55;100469.03;;;23.92;44.04
41513;BME280;27244;59.940;30.280;2023-07-13T01:48:22;100478.59;;;23.95;43.74
41513;BME280;27244;59.940;30.280;2023-07-13T01:50:49;100472.19;;;23.94;44.16
41513;BME280;27244;59.940;30.280;2023-07-13T01:53:16;100474.66;;;23.92;44.19
41513;BME280;27244;59.940;30.280;2023-07-13T01:55:45;100467.78;;;23.93;44.14
41513;BME280;27244;59.940;30.280;2023-07-13T01:58:13;100465.09;;;23.90;44.25
41513;BME280;27244;59.940;30.280;2023-07-13T02:00:40;100468.22;;;23.92;44.25
41513;BME280;27244;59.940;30.280;2023-07-13T02:03:07;100471.03;;;23.92;44.02
41513;BME280;27244;59.940;30.280;2023-07-13T02:05:35;100471.84;;;23.92;44.11
41513;BME280;27244;59.940;30.280;2023-07-13T02:08:02;100468.69;;;23.90;44.25
41513;BME280;27244;59.940;30.280;2023-07-13T02:10:30;100469.03;;;23.92;44.09
41513;BME280;27244;59.940;30.280;2023-07-13T02:12:59;100467.00;;;23.93;44.19
41513;BME280;27244;59.940;30.280;2023-07-13T02:15:26;100467.00;;;23.93;44.06
41513;BME280;27244;59.940;30.280;2023-07-13T02:17:53;100464.63;;;23.91;43.21
41513;BME280;27244;59.940;30.280;2023-07-13T02:20:20;100461.91;;;23.88;43.88
41513;BME280;27244;59.940;30.280;2023-07-13T02:22:47;100463.06;;;23.90;44.06
41513;BME280;27244;59.940;30.280;2023-07-13T02:25:14;100457.53;;;23.87;44.03
41513;BME280;27244;59.940;30.280;2023-07-13T02:27:41;100459.09;;;23.88;44.15
41513;BME280;27244;59.940;30.280;2023-07-13T02:30:10;100470.25;;;23.91;44.21
41513;BME280;27244;59.940;30.280;2023-07-13T02:32:38;100458.66;;;23.89;44.33
41513;BME280;27244;59.940;30.280;2023-07-13T02:35:05;100461.47;;;23.89;44.19
41513;BME280;27244;59.940;30.280;2023-07-13T02:37:32;100465.09;;;23.90;44.22
41513;BME280;27244;59.940;30.280;2023-07-13T02:39:59;100459.91;;;23.88;44.03
41513;BME280;27244;59.940;30.280;2023-07-13T02:42:26;100463.06;;;23.90;44.12
41513;BME280;27244;59.940;30.280;2023-07-13T02:44:54;100461.16;;;23.87;44.23
41513;BME280;27244;59.940;30.280;2023-07-13T02:47:22;100473.88;;;23.92;44.20
41513;BME280;27244;59.940;30.280;2023-07-13T02:49:49;100460.00;;;23.85;44.44
41513;BME280;27244;59.940;30.280;2023-07-13T02:52:16;100474.34;;;23.90;44.21
41513;BME280;27244;59.940;30.280;2023-07-13T02:54:43;100475.13;;;23.91;44.34
41513;BME280;27244;59.940;30.280;2023-07-13T02:57:10;100471.16;;;23.88;44.37
41513;BME280;27244;59.940;30.280;2023-07-13T02:59:38;100473.53;;;23.90;44.26
41513;BME280;27244;59.940;30.280;2023-07-13T03:02:05;100469.94;;;23.89;44.38
41513;BME280;27244;59.940;30.280;2023-07-13T03:04:34;100471.84;;;23.92;44.22
41513;BME280;27244;59.940;30.280;2023-07-13T03:07:02;100472.75;;;23.89;44.26
41513;BME280;27244;59.940;30.280;2023-07-13T03:09:35;100465.41;;;23.92;44.19
41513;BME280;27244;59.940;30.280;2023-07-13T03:12:05;100462.59;;;23.92;44.13
41513;BME280;27244;59.940;30.280;2023-07-13T03:14:33;100461.81;;;23.91;44.22
41513;BME280;27244;59.940;30.280;2023-07-13T03:17:01;100464.97;;;23.93;44.00
41513;BME280;27244;59.940;30.280;2023-07-13T03:19:31;100469.69;;;23.96;44.15
41513;BME280;27244;59.940;30.280;2023-07-13T03:21:59;100470.81;;;23.99;44.11
41513;BME280;27244;59.940;30.280;2023-07-13T03:24:27;100465.97;;;23.99;44.13
41513;BME280;27244;59.940;30.280;2023-07-13T03:26:55;100474.41;;;23.99;44.05
41513;BME280;27244;59.940;30.280;2023-07-13T03:29:23;100476.44;;;23.99;44.21
41513;BME280;27244;59.940;30.280;2023-07-13T03:31:50;100482.75;;;24.03;44.44
41513;BME280;27244;59.940;30.280;2023-07-13T03:34:18;100483.53;;;24.03;44.51
41513;BME280;27244;59.940;30.280;2023-07-13T03:36:45;100475.41;;;24.06;45.15
41513;BME280;27244;59.940;30.280;2023-07-13T03:39:14;100482.63;;;24.07;45.32
41513;BME280;27244;59.940;30.280;2023-07-13T03:41:47;100486.69;;;24.06;45.35
41513;BME280;27244;59.940;30.280;2023-07-13T03:44:16;100494.25;;;24.09;45.04
41513;BME280;27244;59.940;30.280;2023-07-13T03:46:44;100480.97;;;24.09;45.10
41513;BME280;27244;59.940;30.280;2023-07-13T03:49:13;100482.50;;;24.10;44.99
41513;BME280;27244;59.940;30.280;2023-07-13T03:51:40;100470.44;;;24.10;44.62
41513;BME280;27244;59.940;30.280;2023-07-13T03:54:07;100461.69;;;24.08;44.79
41513;BME280;27244;59.940;30.280;2023-07-13T03:56:36;100466.06;;;24.09;44.68
41513;BME280;27244;59.940;30.280;2023-07-13T03:59:04;100455.25;;;24.07;44.66
41513;BME280;27244;59.940;30.280;2023-07-13T04:01:31;100454.13;;;24.05;44.73
41513;BME280;27244;59.940;30.280;2023-07-13T04:03:58;100461.78;;;24.04;44.88
41513;BME280;27244;59.940;30.280;2023-07-13T04:06:28;100461.78;;;24.04;44.75
41513;BME280;27244;59.940;30.280;2023-07-13T04:08:56;100456.28;;;24.00;44.76
41513;BME280;27244;59.940;30.280;2023-07-13T04:11:26;100457.63;;;23.96;44.77
41513;BME280;27244;59.940;30.280;2023-07-13T04:13:55;100460.00;;;23.97;44.74
41513;BME280;27244;59.940;30.280;2023-07-13T04:16:22;100456.84;;;23.95;44.72
41513;BME280;27244;59.940;30.280;2023-07-13T04:18:50;100450.41;;;23.95;44.75
41513;BME280;27244;59.940;30.280;2023-07-13T04:21:20;100449.97;;;23.96;48.23
41513;BME280;27244;59.940;30.280;2023-07-13T04:23:48;100450.97;;;24.02;50.31
41513;BME280;27244;59.940;30.280;2023-07-13T04:26:15;100450.06;;;24.06;48.69
41513;BME280;27244;59.940;30.280;2023-07-13T04:28:42;100440.72;;;24.09;47.89
41513;BME280;27244;59.940;30.280;2023-07-13T04:31:10;100447.03;;;24.13;47.41
41513;BME280;27244;59.940;30.280;2023-07-13T04:33:38;100434.59;;;24.10;47.19
41513;BME280;27244;59.940;30.280;2023-07-13T04:36:05;100438.22;;;24.11;46.66
41513;BME280;27244;59.940;30.280;2023-07-13T04:38:33;100446.59;;;24.14;46.78
41513;BME280;27244;59.940;30.280;2023-07-13T04:41:01;100442.19;;;24.13;46.29
41513;BME280;27244;59.940;30.280;2023-07-13T04:43:29;100453.00;;;24.15;45.78
41513;BME280;27244;59.940;30.280;2023-07-13T04:46:02;100443.75;;;24.14;45.93
41513;BME280;27244;59.940;30.280;2023-07-13T04:48:30;100446.13;;;24.16;45.81
41513;BME280;27244;59.940;30.280;2023-07-13T04:50:58;100445.00;;;24.13;46.19
41513;BME280;27244;59.940;30.280;2023-07-13T04:53:26;100445.00;;;24.13;46.00
41513;BME280;27244;59.940;30.280;2023-07-13T04:55:53;100444.78;;;24.08;45.95
41513;BME280;27244;59.940;30.280;2023-07-13T04:58:20;100442.19;;;24.13;45.97
41513;BME280;27244;59.940;30.280;2023-07-13T05:00:48;100435.75;;;24.13;45.60
41513;BME280;27244;59.940;30.280;2023-07-13T05:03:15;100434.97;;;24.12;45.99
41513;BME280;27244;59.940;30.280;2023-07-13T05:05:53;100448.59;;;24.14;45.73
41513;BME280;27244;59.940;30.280;2023-07-13T05:08:21;100451.44;;;24.14;46.15
41513;BME280;27244;59.940;30.280;2023-07-13T05:10:48;100449.06;;;24.12;46.05
41513;BME280;27244;59.940;30.280;2023-07-13T05:13:15;100445.78;;;24.14;45.89
41513;BME280;27244;59.940;30.280;2023-07-13T05:15:42;100447.81;;;24.13;45.92
41513;BME280;27244;59.940;30.280;2023-07-13T05:18:09;100448.59;;;24.14;45.66
41513;BME280;27244;59.940;30.280;2023-07-13T05:20:36;100448.59;;;24.14;46.04
41513;BME280;27244;59.940;30.280;2023-07-13T05:23:04;100441.75;;;24.15;45.88
41513;BME280;27244;59.940;30.280;2023-07-13T05:25:31;100441.75;;;24.15;45.84
41513;BME280;27244;59.940;30.280;2023-07-13T05:27:58;100437.34;;;24.14;45.79
41513;BME280;27244;59.940;30.280;2023-07-13T05:30:25;100443.75;;;24.14;45.92
41513;BME280;27244;59.940;30.280;2023-07-13T05:32:53;100442.19;;;24.13;45.96
41513;BME280;27244;59.940;30.280;2023-07-13T05:35:19;100460.66;;;24.14;45.86
41513;BME280;27244;59.940;30.280;2023-07-13T05:37:47;100448.25;;;24.12;46.29
41513;BME280;27244;59.940;30.280;2023-07-13T05:40:15;100449.41;;;24.14;46.16
41513;BME280;27244;59.940;30.280;2023-07-13T05:42:47;100454.47;;;24.19;45.88
41513;BME280;27244;59.940;30.280;2023-07-13T05:45:15;100459.88;;;24.14;45.69
41513;BME280;27244;59.940;30.280;2023-07-13T05:47:42;100449.84;;;24.13;45.99
41513;BME280;27244;59.940;30.280;2023-07-13T05:50:09;100441.03;;;24.11;45.97
41513;BME280;27244;59.940;30.280;2023-07-13T05:52:36;100444.78;;;24.08;45.84
41513;BME280;27244;59.940;30.280;2023-07-13T05:55:04;100450.63;;;24.13;45.85
41513;BME280;27244;59.940;30.280;2023-07-13T05:57:33;100448.25;;;24.12;45.81
41513;BME280;27244;59.940;30.280;2023-07-13T06:00:00;100447.47;;;24.11;46.07
41513;BME280;27244;59.940;30.280;2023-07-13T06:02:37;100449.50;;;24.11;45.95
41513;BME280;27244;59.940;30.280;2023-07-13T06:05:05;100451.06;;;24.12;45.78
41513;BME280;27244;59.940;30.280;2023-07-13T06:07:32;100449.50;;;24.11;45.78
41513;BME280;27244;59.940;30.280;2023-07-13T06:09:59;100443.06;;;24.10;45.56
41513;BME280;27244;59.940;30.280;2023-07-13T06:12:26;100439.81;;;24.12;45.71
41513;BME280;27244;59.940;30.280;2023-07-13T06:14:55;100447.81;;;24.13;45.71
41513;BME280;27244;59.940;30.280;2023-07-13T06:17:22;100441.38;;;24.13;45.71
41513;BME280;27244;59.940;30.280;2023-07-13T06:19:49;100436.31;;;24.08;45.80
41513;BME280;27244;59.940;30.280;2023-07-13T06:22:16;100447.81;;;24.13;45.92
41513;BME280;27244;59.940;30.280;2023-07-13T06:24:43;100452.66;;;24.13;45.83
41513;BME280;27244;59.940;30.280;2023-07-13T06:27:10;100457.06;;;24.14;45.71
41513;BME280;27244;59.940;30.280;2023-07-13T06:29:37;100456.72;;;24.12;45.84
41513;BME280;27244;59.940;30.280;2023-07-13T06:32:08;100454.59;;;24.16;45.96
41513;BME280;27244;59.940;30.280;2023-07-13T06:34:35;100455.47;;;24.13;45.83
41513;BME280;27244;59.940;30.280;2023-07-13T06:37:02;100459.88;;;24.14;45.98
41513;BME280;27244;59.940;30.280;2023-07-13T06:39:29;100469.56;;;24.13;45.88
41513;BME280;27244;59.940;30.280;2023-07-13T06:41:56;100469.56;;;24.13;45.83
41513;BME280;27244;59.940;30.280;2023-07-13T06:44:23;100471.59;;;24.12;46.01
41513;BME280;27244;59.940;30.280;2023-07-13T06:46:50;100462.47;;;24.08;46.24
41513;BME280;27244;59.940;30.280;2023-07-13T06:49:18;100467.53;;;24.13;45.79
41513;BME280;27244;59.940;30.280;2023-07-13T06:51:45;100468.44;;;24.10;46.12
41513;BME280;27244;59.940;30.280;2023-07-13T06:54:13;100484.53;;;24.10;46.00
41513;BME280;27244;59.940;30.280;2023-07-13T06:56:40;100473.75;;;24.08;45.73
41513;BME280;27244;59.940;30.280;2023-07-13T06:59:08;100483.78;;;24.09;45.72
41513;BME280;27244;59.940;30.280;2023-07-13T07:01:35;100481.72;;;24.10;45.35
41513;BME280;27244;59.940;30.280;2023-07-13T07:04:03;100486.13;;;24.11;46.08
41513;BME280;27244;59.940;30.280;2023-07-13T07:06:31;100468.09;;;24.08;46.14
41513;BME280;27244;59.940;30.280;2023-07-13T07:08:58;100490.53;;;24.12;46.27
41513;BME280;27244;59.940;30.280;2023-07-13T07:11:25;100489.72;;;24.11;46.51
41513;BME280;27244;59.940;30.280;2023-07-13T07:13:53;100486.13;;;24.11;46.11
41513;BME280;27244;59.940;30.280;2023-07-13T07:16:21;100488.94;;;24.11;46.31
41513;BME280;27244;59.940;30.280;2023-07-13T07:18:48;100482.06;;;24.12;46.70
41513;BME280;27244;59.940;30.280;2023-07-13T07:21:15;100495.38;;;24.11;46.73
41513;BME280;27244;59.940;30.280;2023-07-13T07:23:44;100503.38;;;24.13;46.48
41513;BME280;27244;59.940;30.280;2023-07-13T07:26:11;100503.03;;;24.11;47.18
41513;BME280;27244;59.940;30.280;2023-07-13T07:28:38;100499.41;;;24.10;46.86
41513;BME280;27244;59.940;30.280;2023-07-13T07:31:05;100496.16;;;24.12;46.37
41513;BME280;27244;59.940;30.280;2023-07-13T07:33:32;100514.66;;;24.13;46.92
41513;BME280;27244;59.940;30.280;2023-07-13T07:36:00;100509.03;;;24.13;46.68
41513;BME280;27244;59.940;30.280;2023-07-13T07:38:27;100507.88;;;24.10;46.80
41513;BME280;27244;59.940;30.280;2023-07-13T07:40:56;100517.84;;;24.15;46.76
41513;BME280;27244;59.940;30.280;2023-07-13T07:43:23;100513.50;;;24.10;46.67
41513;BME280;27244;59.940;30.280;2023-07-13T07:45:50;100517.47;;;24.13;46.66
41513;BME280;27244;59.940;30.280;2023-07-13T07:48:17;100518.72;;;24.12;46.36
41513;BME280;27244;59.940;30.280;2023-07-13T07:50:44;100517.84;;;24.15;46.23
41513;BME280;27244;59.940;30.280;2023-07-13T07:53:11;100520.28;;;24.13;46.46
41513;BME280;27244;59.940;30.280;2023-07-13T07:55:38;100509.03;;;24.13;46.33
41513;BME280;27244;59.940;30.280;2023-07-13T07:58:07;100516.59;;;24.16;46.34
41513;BME280;27244;59.940;30.280;2023-07-13T08:00:34;100512.19;;;24.15;46.30
41513;BME280;27244;59.940;30.280;2023-07-13T08:03:02;100510.59;;;24.14;46.54
41513;BME280;27244;59.940;30.280;2023-07-13T08:05:29;100506.56;;;24.15;46.19
41513;BME280;27244;59.940;30.280;2023-07-13T08:07:56;100502.94;;;24.14;46.41
41513;BME280;27244;59.940;30.280;2023-07-13T08:10:23;100505.75;;;24.14;46.17
41513;BME280;27244;59.940;30.280;2023-07-13T08:12:50;100507.34;;;24.15;46.47
41513;BME280;27244;59.940;30.280;2023-07-13T08:15:19;100502.03;;;24.17;46.43
41513;BME280;27244;59.940;30.280;2023-07-13T08:17:47;100510.16;;;24.15;46.23
41513;BME280;27244;59.940;30.280;2023-07-13T08:20:14;100506.56;;;24.15;46.44
41513;BME280;27244;59.940;30.280;2023-07-13T08:22:42;100505.31;;;24.16;46.38
41513;BME280;27244;59.940;30.280;2023-07-13T08:25:09;100510.16;;;24.15;46.47
41513;BME280;27244;59.940;30.280;2023-07-13T08:27:36;100500.13;;;24.14;46.51
41513;BME280;27244;59.940;30.280;2023-07-13T08:30:04;100504.97;;;24.14;46.84
41513;BME280;27244;59.940;30.280;2023-07-13T08:32:32;100502.50;;;24.16;47.34
41513;BME280;27244;59.940;30.280;2023-07-13T08:34:59;100510.97;;;24.16;47.01
41513;BME280;27244;59.940;30.280;2023-07-13T08:37:26;100510.97;;;24.16;46.94
41513;BME280;27244;59.940;30.280;2023-07-13T08:39:53;100506.56;;;24.15;47.23
41513;BME280;27244;59.940;30.280;2023-07-13T08:42:30;100513.97;;;24.21;47.13
41513;BME280;27244;59.940;30.280;2023-07-13T08:45:07;100507.56;;;24.21;47.22
41513;BME280;27244;59.940;30.280;2023-07-13T08:47:41;100514.44;;;24.20;46.59
41513;BME280;27244;59.940;30.280;2023-07-13T08:50:12;100508.47;;;24.18;46.83
41513;BME280;27244;59.940;30.280;2023-07-13T08:52:42;100501.25;;;24.17;46.95
41513;BME280;27244;59.940;30.280;2023-07-13T08:55:13;100510.06;;;24.19;46.66
41513;BME280;27244;59.940;30.280;2023-07-13T08:57:42;100502.50;;;24.16;46.82
41513;BME280;27244;59.940;30.280;2023-07-13T09:00:13;100502.50;;;24.16;47.00
41513;BME280;27244;59.940;30.280;2023-07-13T09:02:46;100499.09;;;24.21;47.04
41513;BME280;27244;59.940;30.280;2023-07-13T09:05:18;100507.34;;;24.15;46.73
41513;BME280;27244;59.940;30.280;2023-07-13T09:08:01;100501.78;;;24.24;46.48
41513;BME280;27244;59.940;30.280;2023-07-13T09:10:34;100494.06;;;24.16;46.67
41513;BME280;27244;59.940;30.280;2023-07-13T09:13:20;100495.84;;;24.22;46.84
41513;BME280;27244;59.940;30.280;2023-07-13T09:15:50;100496.06;;;24.15;46.54
41513;BME280;27244;59.940;30.280;2023-07-13T09:18:25;100498.31;;;24.20;46.73
41513;BME280;27244;59.940;30.280;2023-07-13T09:20:56;100497.19;;;24.18;46.98
41513;BME280;27244;59.940;30.280;2023-07-13T09:23:26;100497.75;;;24.13;47.41
41513;BME280;27244;59.940;30.280;2023-07-13T09:26:00;100503.94;;;24.20;47.76
41513;BME280;27244;59.940;30.280;2023-07-13T09:28:29;100503.28;;;24.16;48.03
41513;BME280;27244;59.940;30.280;2023-07-13T09:31:04;100492.91;;;24.13;47.71
41513;BME280;27244;59.940;30.280;2023-07-13T09:33:34;100502.38;;;24.19;47.99
41513;BME280;27244;59.940;30.280;2023-07-13T09:36:03;100507.22;;;24.19;47.78
41513;BME280;27244;59.940;30.280;2023-07-13T09:38:43;100492.78;;;24.17;47.77
41513;BME280;27244;59.940;30.280;2023-07-13T09:41:19;100499.31;;;24.26;47.60
41513;BME280;27244;59.940;30.280;2023-07-13T09:44:11;100484.22;;;24.20;47.26
41513;BME280;27244;59.940;30.280;2023-07-13T09:46:40;100495.47;;;24.20;47.38
41513;BME280;27244;59.940;30.280;2023-07-13T09:49:13;100500.69;;;24.22;47.37
41513;BME280;27244;59.940;30.280;2023-07-13T09:51:41;100497.97;;;24.18;46.82
41513;BME280;27244;59.940;30.280;2023-07-13T09:54:18;100490.41;;;24.28;46.77
41513;BME280;27244;59.940;30.280;2023-07-13T09:56:46;100491.13;;;24.19;47.34
41513;BME280;27244;59.940;30.280;2023-07-13T09:59:19;100496.50;;;24.26;47.49
41513;BME280;27244;59.940;30.280;2023-07-13T10:01:47;100487.50;;;24.19;47.29
41513;BME280;27244;59.940;30.280;2023-07-13T10:04:18;100481.75;;;24.22;47.41
41513;BME280;27244;59.940;30.280;2023-07-13T10:06:46;100482.66;;;24.19;47.27
41513;BME280;27244;59.940;30.280;2023-07-13T10:09:15;100489.41;;;24.22;47.19
41513;BME280;27244;59.940;30.280;2023-07-13T10:11:42;100487.50;;;24.19;47.19
41513;BME280;27244;59.940;30.280;2023-07-13T10:14:13;100487.03;;;24.20;46.99
41513;BME280;27244;59.940;30.280;2023-07-13T10:16:42;100492.66;;;24.20;46.47
41513;BME280;27244;59.940;30.280;2023-07-13T10:19:13;100491.78;;;24.23;46.67
41513;BME280;27244;59.940;30.280;2023-07-13T10:21:50;100495.72;;;24.26;46.34
41513;BME280;27244;59.940;30.280;2023-07-13T10:24:21;100487.81;;;24.21;46.52
41513;BME280;27244;59.940;30.280;2023-07-13T10:26:56;100496.94;;;24.25;46.44
41513;BME280;27244;59.940;30.280;2023-07-13T10:29:26;100500.38;;;24.20;46.66
41513;BME280;27244;59.940;30.280;2023-07-13T10:31:53;100496.88;;;24.16;46.69
41513;BME280;27244;59.940;30.280;2023-07-13T10:34:22;100502.38;;;24.19;46.61
41513;BME280;27244;59.940;30.280;2023-07-13T10:36:51;100503.94;;;24.20;46.48
41513;BME280;27244;59.940;30.280;2023-07-13T10:39:20;100496.88;;;24.16;46.22
41513;BME280;27244;59.940;30.280;2023-07-13T10:41:52;100503.06;;;24.23;46.45
41513;BME280;27244;59.940;30.280;2023-07-13T10:44:23;100508.69;;;24.23;46.77
41513;BME280;27244;59.940;30.280;2023-07-13T10:46:56;100495.03;;;24.22;46.91
41513;BME280;27244;59.940;30.280;2023-07-13T10:49:24;100501.91;;;24.21;47.26
41513;BME280;27244;59.940;30.280;2023-07-13T10:51:55;100512.75;;;24.22;47.62
41513;BME280;27244;59.940;30.280;2023-07-13T10:54:27;100507.91;;;24.23;47.03
41513;BME280;27244;59.940;30.280;2023-07-13T10:57:14;100503.63;;;24.31;46.71
41513;BME280;27244;59.940;30.280;2023-07-13T10:59:43;100499.88;;;24.21;46.77
41513;BME280;27244;59.940;30.280;2023-07-13T11:02:23;100501.22;;;24.29;47.06
41513;BME280;27244;59.940;30.280;2023-07-13T11:04:53;100496.63;;;24.23;46.86
41513;BME280;27244;59.940;30.280;2023-07-13T11:07:24;100497.75;;;24.25;46.81
41513;BME280;27244;59.940;30.280;2023-07-13T11:09:53;100496.63;;;24.23;47.05
41513;BME280;27244;59.940;30.280;2023-07-13T11:15:12;100482.84;;;24.25;46.97
41513;BME280;27244;59.940;30.280;2023-07-13T11:17:50;100485.13;;;24.30;46.80
41513;BME280;27244;59.940;30.280;2023-07-13T11:20:37;100494.56;;;24.36;46.62
41513;BME280;27244;59.940;30.280;2023-07-13T11:23:28;100496.59;;;24.35;46.45
41513;BME280;27244;59.940;30.280;2023-07-13T11:25:56;100486.59;;;24.22;46.59
41513;BME280;27244;59.940;30.280;2023-07-13T11:28:25;100501.47;;;24.22;46.47
41513;BME280;27244;59.940;30.280;2023-07-13T11:31:12;100501.13;;;24.33;46.43
41513;BME280;27244;59.940;30.280;2023-07-13T11:33:56;100494.13;;;24.37;46.49
41513;BME280;27244;59.940;30.280;2023-07-13T11:36:36;100494.34;;;24.30;46.80
41513;BME280;27244;59.940;30.280;2023-07-13T11:39:16;100502.34;;;24.32;46.77
41513;BME280;27244;59.940;30.280;2023-07-13T11:41:49;100500.13;;;24.27;46.61
41513;BME280;27244;59.940;30.280;2023-07-13T11:44:19;100498.66;;;24.22;46.63
41513;BME280;27244;59.940;30.280;2023-07-13T11:46:47;100498.19;;;24.24;46.83
41513;BME280;27244;59.940;30.280;2023-07-13T11:49:18;100510.94;;;24.28;46.96
41513;BME280;27244;59.940;30.280;2023-07-13T11:51:45;100517.16;;;24.23;46.80
41513;BME280;27244;59.940;30.280;2023-07-13T11:54:23;100528.97;;;24.31;46.44
41513;BME280;27244;59.940;30.280;2023-07-13T11:56:52;100529.97;;;24.24;45.65
41513;BME280;27244;59.940;30.280;2023-07-13T11:59:19;100526.84;;;24.22;45.47
41513;BME280;27244;59.940;30.280;2023-07-13T12:01:50;100523.91;;;24.26;45.59
41513;BME280;27244;59.940;30.280;2023-07-13T12:04:22;100523.56;;;24.24;45.79
41513;BME280;27244;59.940;30.280;2023-07-13T12:06:58;100526.16;;;24.31;45.64
41513;BME280;27244;59.940;30.280;2023-07-13T12:09:28;100518.59;;;24.28;45.77
41513;BME280;27244;59.940;30.280;2023-07-13T12:11:57;100526.72;;;24.26;45.63
41513;BME280;27244;59.940;30.280;2023-07-13T12:14:26;100517.91;;;24.24;45.87
41513;BME280;27244;59.940;30.280;2023-07-13T12:16:54;100522.31;;;24.25;45.76
41513;BME280;27244;59.940;30.280;2023-07-13T12:19:23;100518.72;;;24.24;45.90
41513;BME280;27244;59.940;30.280;2023-07-13T12:21:54;100515.44;;;24.26;45.89
41513;BME280;27244;59.940;30.280;2023-07-13T12:24:23;100513.41;;;24.26;46.02
41513;BME280;27244;59.940;30.280;2023-07-13T12:26:53;100523.44;;;24.27;46.17
41513;BME280;27244;59.940;30.280;2023-07-13T12:29:21;100515.09;;;24.24;46.22
41513;BME280;27244;59.940;30.280;2023-07-13T12:31:49;100519.06;;;24.26;46.21
41513;BME280;27244;59.940;30.280;2023-07-13T12:34:19;100512.28;;;24.24;46.20
41513;BME280;27244;59.940;30.280;2023-07-13T12:36:49;100519.84;;;24.27;46.33
41513;BME280;27244;59.940;30.280;2023-07-13T12:39:19;100521.75;;;24.30;46.25
41513;BME280;27244;59.940;30.280;2023-07-13T12:41:48;100518.59;;;24.28;46.44
41513;BME280;27244;59.940;30.280;2023-07-13T12:44:19;100514.22;;;24.27;46.33
41513;BME280;27244;59.940;30.280;2023-07-13T12:46:57;100507.66;;;24.30;45.97
41513;BME280;27244;59.940;30.280;2023-07-13T12:49:29;100511.72;;;24.29;46.26
41513;BME280;27244;59.940;30.280;2023-07-13T12:52:00;100513.41;;;24.26;46.48
41513;BME280;27244;59.940;30.280;2023-07-13T12:54:28;100507.78;;;24.26;46.68